sensor_id;sensor_type;location;lat;lon;timestamp;P1;durP1;ratioP1;P2;durP2;ratioP2
68985;SDS011;56035;37.534;-122.308;2022-08-01T00:01:09;2.92;;;0.45;;
68985;SDS011;56035;37.534;-122.308;2022-08-01T00:03:37;0.30;;;0.30;;
68985;SDS011;56035;37.534;-122.308;2022-08-01T00:06:03;2.50;;;0.60;;
68985;SDS011;56035;37.534;-122.308;2022-08-01T00:08:29;0.98;;;0.32;;
68985;SDS011;56035;37.534;-122.308;2022-08-01T00:10:56;0.60;;;0.40;;
68985;SDS011;56035;37.534;-122.308;2022-08-01T00:13:22;1.40;;;0.80;;
68985;SDS011;56035;37.534;-122.308;2022-08-01T00:15:48;1.80;;;0.80;;
68985;SDS011;56035;37.534;-122.308;2022-08-01T00:18:14;1.50;;;0.60;;
68985;SDS011;56035;37.534;-122.308;2022-08-01T00:20:40;1.52;;;0.40;;
68985;SDS011;56035;37.534;-122.308;2022-08-01T00:23:07;0.90;;;0.40;;
68985;SDS011;56035;37.534;-122.308;2022-08-01T00:25:33;0.50;;;0.40;;
68985;SDS011;56035;37.534;-122.308;2022-08-01T00:27:59;1.10;;;0.68;;
68985;SDS011;56035;37.534;-122.308;2022-08-01T00:30:25;3.42;;;2.65;;
68985;SDS011;56035;37.534;-122.308;2022-08-01T00:32:51;1.63;;;1.20;;
68985;SDS011;56035;37.534;-122.308;2022-08-01T00:35:17;0.55;;;0.45;;
68985;SDS011;56035;37.534;-122.308;2022-08-01T00:37:43;1.20;;;0.70;;
68985;SDS011;56035;37.534;-122.308;2022-08-01T00:40:09;1.02;;;0.50;;
68985;SDS011;56035;37.534;-122.308;2022-08-01T00:42:36;0.77;;;0.43;;
68985;SDS011;56035;37.534;-122.308;2022-08-01T00:45:02;1.50;;;0.70;;
68985;SDS011;56035;37.534;-122.308;2022-08-01T00:47:28;3.80;;;2.90;;
68985;SDS011;56035;37.534;-122.308;2022-08-01T00:49:55;1.80;;;1.20;;
68985;SDS011;56035;37.534;-122.308;2022-08-01T00:52:21;0.80;;;0.50;;
68985;SDS011;56035;37.534;-122.308;2022-08-01T00:54:47;0.70;;;0.40;;
68985;SDS011;56035;37.534;-122.308;2022-08-01T00:57:13;0.73;;;0.40;;
68985;SDS011;56035;37.534;-122.308;2022-08-01T00:59:40;1.08;;;0.70;;
68985;SDS011;56035;37.534;-122.308;2022-08-01T01:04:32;1.08;;;0.70;;
68985;SDS011;56035;37.534;-122.308;2022-08-01T01:07:09;1.83;;;1.10;;
68985;SDS011;56035;37.534;-122.308;2022-08-01T01:12:54;2.03;;;1.38;;
68985;SDS011;56035;37.534;-122.308;2022-08-01T01:20:41;0.98;;;0.38;;
68985;SDS011;56035;37.534;-122.308;2022-08-01T01:25:49;1.58;;;0.40;;
68985;SDS011;56035;37.534;-122.308;2022-08-01T01:31:36;0.47;;;0.10;;
68985;SDS011;56035;37.534;-122.308;2022-08-01T01:34:11;1.95;;;0.20;;
68985;SDS011;56035;37.534;-122.308;2022-08-01T01:36:39;0.20;;;0.20;;
68985;SDS011;56035;37.534;-122.308;2022-08-01T01:39:07;0.20;;;0.20;;
68985;SDS011;56035;37.534;-122.308;2022-08-01T01:41:35;0.47;;;0.20;;
68985;SDS011;56035;37.534;-122.308;2022-08-01T01:44:03;0.20;;;0.20;;
68985;SDS011;56035;37.534;-122.308;2022-08-01T01:46:30;0.32;;;0.30;;
68985;SDS011;56035;37.534;-122.308;2022-08-01T01:48:57;0.50;;;0.30;;
68985;SDS011;56035;37.534;-122.308;2022-08-01T01:51:25;0.40;;;0.20;;
68985;SDS011;56035;37.534;-122.308;2022-08-01T01:53:54;0.68;;;0.30;;
68985;SDS011;56035;37.534;-122.308;2022-08-01T01:56:21;0.75;;;0.20;;
68985;SDS011;56035;37.534;-122.308;2022-08-01T01:58:50;0.68;;;0.20;;
68985;SDS011;56035;37.534;-122.308;2022-08-01T02:01:19;0.28;;;0.10;;
68985;SDS011;56035;37.534;-122.308;2022-08-01T02:03:49;0.10;;;0.10;;
68985;SDS011;56035;37.534;-122.308;2022-08-01T02:06:19;0.57;;;0.20;;
68985;SDS011;56035;37.534;-122.308;2022-08-01T02:08:47;0.20;;;0.20;;
68985;SDS011;56035;37.534;-122.308;2022-08-01T02:11:14;0.20;;;0.20;;
68985;SDS011;56035;37.534;-122.308;2022-08-01T02:13:49;0.30;;;0.20;;
68985;SDS011;56035;37.534;-122.308;2022-08-01T02:16:22;0.43;;;0.30;;
68985;SDS011;56035;37.534;-122.308;2022-08-01T02:18:51;1.27;;;0.20;;
68985;SDS011;56035;37.534;-122.308;2022-08-01T02:21:19;1.38;;;0.30;;
68985;SDS011;56035;37.534;-122.308;2022-08-01T02:27:33;0.98;;;0.43;;
68985;SDS011;56035;37.534;-122.308;2022-08-01T02:30:06;0.95;;;0.20;;
68985;SDS011;56035;37.534;-122.308;2022-08-01T02:32:53;0.30;;;0.20;;
68985;SDS011;56035;37.534;-122.308;2022-08-01T02:35:27;0.20;;;0.20;;
68985;SDS011;56035;37.534;-122.308;2022-08-01T02:37:57;0.35;;;0.30;;
68985;SDS011;56035;37.534;-122.308;2022-08-01T02:40:27;0.40;;;0.20;;
68985;SDS011;56035;37.534;-122.308;2022-08-01T02:42:57;0.90;;;0.20;;
68985;SDS011;56035;37.534;-122.308;2022-08-01T02:45:26;0.40;;;0.22;;
68985;SDS011;56035;37.534;-122.308;2022-08-01T02:47:55;0.40;;;0.20;;
68985;SDS011;56035;37.534;-122.308;2022-08-01T02:50:26;1.38;;;0.40;;
68985;SDS011;56035;37.534;-122.308;2022-08-01T02:52:55;1.02;;;0.20;;
68985;SDS011;56035;37.534;-122.308;2022-08-01T02:55:23;1.02;;;0.30;;
68985;SDS011;56035;37.534;-122.308;2022-08-01T02:57:51;0.40;;;0.30;;
68985;SDS011;56035;37.534;-122.308;2022-08-01T03:00:19;0.88;;;0.40;;
68985;SDS011;56035;37.534;-122.308;2022-08-01T03:02:45;1.23;;;0.30;;
68985;SDS011;56035;37.534;-122.308;2022-08-01T03:05:14;1.83;;;0.60;;
68985;SDS011;56035;37.534;-122.308;2022-08-01T03:07:42;1.02;;;0.50;;
68985;SDS011;56035;37.534;-122.308;2022-08-01T03:10:09;0.80;;;0.45;;
68985;SDS011;56035;37.534;-122.308;2022-08-01T03:12:36;0.68;;;0.40;;
68985;SDS011;56035;37.534;-122.308;2022-08-01T03:15:04;0.70;;;0.50;;
68985;SDS011;56035;37.534;-122.308;2022-08-01T03:17:32;1.63;;;0.85;;
68985;SDS011;56035;37.534;-122.308;2022-08-01T03:20:01;0.70;;;0.50;;
68985;SDS011;56035;37.534;-122.308;2022-08-01T03:22:29;1.13;;;0.50;;
68985;SDS011;56035;37.534;-122.308;2022-08-01T03:24:58;0.70;;;0.47;;
68985;SDS011;56035;37.534;-122.308;2022-08-01T03:27:26;1.20;;;0.50;;
68985;SDS011;56035;37.534;-122.308;2022-08-01T03:29:54;0.90;;;0.40;;
68985;SDS011;56035;37.534;-122.308;2022-08-01T03:32:22;0.80;;;0.50;;
68985;SDS011;56035;37.534;-122.308;2022-08-01T03:34:49;1.23;;;0.50;;
68985;SDS011;56035;37.534;-122.308;2022-08-01T03:37:26;0.90;;;0.50;;
68985;SDS011;56035;37.534;-122.308;2022-08-01T03:39:57;1.15;;;0.63;;
68985;SDS011;56035;37.534;-122.308;2022-08-01T03:42:28;1.23;;;0.65;;
68985;SDS011;56035;37.534;-122.308;2022-08-01T03:44:59;0.98;;;0.60;;
68985;SDS011;56035;37.534;-122.308;2022-08-01T03:47:31;2.60;;;0.60;;
68985;SDS011;56035;37.534;-122.308;2022-08-01T03:50:00;1.15;;;0.70;;
68985;SDS011;56035;37.534;-122.308;2022-08-01T03:52:32;1.27;;;0.60;;
68985;SDS011;56035;37.534;-122.308;2022-08-01T03:55:02;0.85;;;0.55;;
68985;SDS011;56035;37.534;-122.308;2022-08-01T03:57:32;0.77;;;0.50;;
68985;SDS011;56035;37.534;-122.308;2022-08-01T04:02:26;1.05;;;0.70;;
68985;SDS011;56035;37.534;-122.308;2022-08-01T04:04:53;1.20;;;0.80;;
68985;SDS011;56035;37.534;-122.308;2022-08-01T04:07:30;1.98;;;0.70;;
68985;SDS011;56035;37.534;-122.308;2022-08-01T04:09:57;6.35;;;0.70;;
68985;SDS011;56035;37.534;-122.308;2022-08-01T04:12:24;1.60;;;0.82;;
68985;SDS011;56035;37.534;-122.308;2022-08-01T04:14:50;0.98;;;0.70;;
68985;SDS011;56035;37.534;-122.308;2022-08-01T04:17:16;1.20;;;0.70;;
68985;SDS011;56035;37.534;-122.308;2022-08-01T04:19:43;1.30;;;0.80;;
68985;SDS011;56035;37.534;-122.308;2022-08-01T04:22:10;1.52;;;0.80;;
68985;SDS011;56035;37.534;-122.308;2022-08-01T04:24:38;1.67;;;0.70;;
68985;SDS011;56035;37.534;-122.308;2022-08-01T04:27:11;1.25;;;0.70;;
68985;SDS011;56035;37.534;-122.308;2022-08-01T04:29:40;1.52;;;0.80;;
68985;SDS011;56035;37.534;-122.308;2022-08-01T04:32:08;2.10;;;1.00;;
68985;SDS011;56035;37.534;-122.308;2022-08-01T04:34:39;1.55;;;1.00;;
68985;SDS011;56035;37.534;-122.308;2022-08-01T04:37:10;2.38;;;1.00;;
68985;SDS011;56035;37.534;-122.308;2022-08-01T04:39:38;1.83;;;1.13;;
68985;SDS011;56035;37.534;-122.308;2022-08-01T04:42:08;1.90;;;1.10;;
68985;SDS011;56035;37.534;-122.308;2022-08-01T04:44:37;1.90;;;1.30;;
68985;SDS011;56035;37.534;-122.308;2022-08-01T04:47:03;2.70;;;1.38;;
68985;SDS011;56035;37.534;-122.308;2022-08-01T04:49:33;2.72;;;1.30;;
68985;SDS011;56035;37.534;-122.308;2022-08-01T04:52:00;2.78;;;1.42;;
68985;SDS011;56035;37.534;-122.308;2022-08-01T04:54:26;2.55;;;1.67;;
68985;SDS011;56035;37.534;-122.308;2022-08-01T04:56:54;3.28;;;1.73;;
68985;SDS011;56035;37.534;-122.308;2022-08-01T04:59:31;4.10;;;1.85;;
68985;SDS011;56035;37.534;-122.308;2022-08-01T05:02:16;3.03;;;1.70;;
68985;SDS011;56035;37.534;-122.308;2022-08-01T05:04:44;2.95;;;1.80;;
68985;SDS011;56035;37.534;-122.308;2022-08-01T05:07:11;2.67;;;1.73;;
68985;SDS011;56035;37.534;-122.308;2022-08-01T05:09:39;3.35;;;1.63;;
68985;SDS011;56035;37.534;-122.308;2022-08-01T05:12:11;2.40;;;1.50;;
68985;SDS011;56035;37.534;-122.308;2022-08-01T05:14:37;2.72;;;1.73;;
68985;SDS011;56035;37.534;-122.308;2022-08-01T05:17:05;2.72;;;1.73;;
68985;SDS011;56035;37.534;-122.308;2022-08-01T05:19:33;2.88;;;1.73;;
68985;SDS011;56035;37.534;-122.308;2022-08-01T05:22:01;4.15;;;1.90;;
68985;SDS011;56035;37.534;-122.308;2022-08-01T05:24:33;3.05;;;1.85;;
68985;SDS011;56035;37.534;-122.308;2022-08-01T05:27:01;2.83;;;1.75;;
68985;SDS011;56035;37.534;-122.308;2022-08-01T05:29:27;2.92;;;1.98;;
68985;SDS011;56035;37.534;-122.308;2022-08-01T05:31:53;2.80;;;1.80;;
68985;SDS011;56035;37.534;-122.308;2022-08-01T05:34:20;4.60;;;2.13;;
68985;SDS011;56035;37.534;-122.308;2022-08-01T05:36:46;2.70;;;1.60;;
68985;SDS011;56035;37.534;-122.308;2022-08-01T05:39:13;3.95;;;2.20;;
68985;SDS011;56035;37.534;-122.308;2022-08-01T05:41:40;5.17;;;2.63;;
68985;SDS011;56035;37.534;-122.308;2022-08-01T05:46:33;5.10;;;3.00;;
68985;SDS011;56035;37.534;-122.308;2022-08-01T05:49:00;6.63;;;2.78;;
68985;SDS011;56035;37.534;-122.308;2022-08-01T05:51:27;5.15;;;2.92;;
68985;SDS011;56035;37.534;-122.308;2022-08-01T05:53:53;5.57;;;2.80;;
68985;SDS011;56035;37.534;-122.308;2022-08-01T05:56:20;6.28;;;3.30;;
68985;SDS011;56035;37.534;-122.308;2022-08-01T06:01:12;5.40;;;3.30;;
68985;SDS011;56035;37.534;-122.308;2022-08-01T06:03:38;7.38;;;3.45;;
68985;SDS011;56035;37.534;-122.308;2022-08-01T06:06:05;5.80;;;3.38;;
68985;SDS011;56035;37.534;-122.308;2022-08-01T06:08:31;6.82;;;3.88;;
68985;SDS011;56035;37.534;-122.308;2022-08-01T06:10:58;6.47;;;3.80;;
68985;SDS011;56035;37.534;-122.308;2022-08-01T06:13:24;5.63;;;3.47;;
68985;SDS011;56035;37.534;-122.308;2022-08-01T06:15:50;4.20;;;3.38;;
68985;SDS011;56035;37.534;-122.308;2022-08-01T06:18:17;6.13;;;3.63;;
68985;SDS011;56035;37.534;-122.308;2022-08-01T06:20:43;5.82;;;3.95;;
68985;SDS011;56035;37.534;-122.308;2022-08-01T06:25:36;5.15;;;3.40;;
68985;SDS011;56035;37.534;-122.308;2022-08-01T06:28:02;7.22;;;3.67;;
68985;SDS011;56035;37.534;-122.308;2022-08-01T06:30:29;6.75;;;3.97;;
68985;SDS011;56035;37.534;-122.308;2022-08-01T06:32:55;7.60;;;4.18;;
68985;SDS011;56035;37.534;-122.308;2022-08-01T06:35:23;5.88;;;3.33;;
68985;SDS011;56035;37.534;-122.308;2022-08-01T06:37:50;4.47;;;3.55;;
68985;SDS011;56035;37.534;-122.308;2022-08-01T06:40:16;6.70;;;4.07;;
68985;SDS011;56035;37.534;-122.308;2022-08-01T06:45:11;6.50;;;3.97;;
68985;SDS011;56035;37.534;-122.308;2022-08-01T06:47:38;5.37;;;3.70;;
68985;SDS011;56035;37.534;-122.308;2022-08-01T06:50:05;7.00;;;4.00;;
68985;SDS011;56035;37.534;-122.308;2022-08-01T06:52:34;5.80;;;3.58;;
68985;SDS011;56035;37.534;-122.308;2022-08-01T06:57:26;7.75;;;3.50;;
68985;SDS011;56035;37.534;-122.308;2022-08-01T06:59:53;6.10;;;3.72;;
68985;SDS011;56035;37.534;-122.308;2022-08-01T07:02:19;6.20;;;3.80;;
68985;SDS011;56035;37.534;-122.308;2022-08-01T07:04:46;4.80;;;3.00;;
68985;SDS011;56035;37.534;-122.308;2022-08-01T07:07:12;7.47;;;3.75;;
68985;SDS011;56035;37.534;-122.308;2022-08-01T07:09:38;4.85;;;3.45;;
68985;SDS011;56035;37.534;-122.308;2022-08-01T07:12:06;5.07;;;3.20;;
68985;SDS011;56035;37.534;-122.308;2022-08-01T07:14:33;5.60;;;3.13;;
68985;SDS011;56035;37.534;-122.308;2022-08-01T07:16:59;4.97;;;2.92;;
68985;SDS011;56035;37.534;-122.308;2022-08-01T07:19:25;4.95;;;3.08;;
68985;SDS011;56035;37.534;-122.308;2022-08-01T07:21:52;3.88;;;2.42;;
68985;SDS011;56035;37.534;-122.308;2022-08-01T07:24:18;3.67;;;2.25;;
68985;SDS011;56035;37.534;-122.308;2022-08-01T07:26:46;3.88;;;1.95;;
68985;SDS011;56035;37.534;-122.308;2022-08-01T07:29:13;4.53;;;2.20;;
68985;SDS011;56035;37.534;-122.308;2022-08-01T07:31:39;2.97;;;2.10;;
68985;SDS011;56035;37.534;-122.308;2022-08-01T07:34:06;3.22;;;1.90;;
68985;SDS011;56035;37.534;-122.308;2022-08-01T07:36:32;3.80;;;1.83;;
68985;SDS011;56035;37.534;-122.308;2022-08-01T07:38:59;3.33;;;1.80;;
68985;SDS011;56035;37.534;-122.308;2022-08-01T07:41:25;6.22;;;2.13;;
68985;SDS011;56035;37.534;-122.308;2022-08-01T07:43:51;3.25;;;2.10;;
68985;SDS011;56035;37.534;-122.308;2022-08-01T07:46:17;5.25;;;2.40;;
68985;SDS011;56035;37.534;-122.308;2022-08-01T07:48:43;4.57;;;1.98;;
68985;SDS011;56035;37.534;-122.308;2022-08-01T07:51:09;2.97;;;1.77;;
68985;SDS011;56035;37.534;-122.308;2022-08-01T07:56:02;3.22;;;1.90;;
68985;SDS011;56035;37.534;-122.308;2022-08-01T07:58:31;2.72;;;1.73;;
68985;SDS011;56035;37.534;-122.308;2022-08-01T08:00:58;2.80;;;1.80;;
68985;SDS011;56035;37.534;-122.308;2022-08-01T08:03:24;3.50;;;2.20;;
68985;SDS011;56035;37.534;-122.308;2022-08-01T08:05:50;3.67;;;1.80;;
68985;SDS011;56035;37.534;-122.308;2022-08-01T08:11:01;2.70;;;1.87;;
68985;SDS011;56035;37.534;-122.308;2022-08-01T08:13:27;3.15;;;1.90;;
68985;SDS011;56035;37.534;-122.308;2022-08-01T08:15:53;3.03;;;1.80;;
68985;SDS011;56035;37.534;-122.308;2022-08-01T08:18:19;2.88;;;1.90;;
68985;SDS011;56035;37.534;-122.308;2022-08-01T08:20:46;4.15;;;2.28;;
68985;SDS011;56035;37.534;-122.308;2022-08-01T08:23:12;3.47;;;2.40;;
68985;SDS011;56035;37.534;-122.308;2022-08-01T08:25:56;4.70;;;2.87;;
68985;SDS011;56035;37.534;-122.308;2022-08-01T08:28:22;4.35;;;2.25;;
68985;SDS011;56035;37.534;-122.308;2022-08-01T08:30:49;4.10;;;2.88;;
68985;SDS011;56035;37.534;-122.308;2022-08-01T08:33:15;3.38;;;2.42;;
68985;SDS011;56035;37.534;-122.308;2022-08-01T08:35:41;3.83;;;2.88;;
68985;SDS011;56035;37.534;-122.308;2022-08-01T08:38:07;4.22;;;2.70;;
68985;SDS011;56035;37.534;-122.308;2022-08-01T08:40:34;4.72;;;3.08;;
68985;SDS011;56035;37.534;-122.308;2022-08-01T08:43:03;4.60;;;3.00;;
68985;SDS011;56035;37.534;-122.308;2022-08-01T08:45:31;5.17;;;3.30;;
68985;SDS011;56035;37.534;-122.308;2022-08-01T08:47:58;4.40;;;2.93;;
68985;SDS011;56035;37.534;-122.308;2022-08-01T08:50:25;6.60;;;3.85;;
68985;SDS011;56035;37.534;-122.308;2022-08-01T08:52:55;5.13;;;3.30;;
68985;SDS011;56035;37.534;-122.308;2022-08-01T08:55:23;5.70;;;3.23;;
68985;SDS011;56035;37.534;-122.308;2022-08-01T09:00:16;5.00;;;3.20;;
68985;SDS011;56035;37.534;-122.308;2022-08-01T09:02:43;4.53;;;2.90;;
68985;SDS011;56035;37.534;-122.308;2022-08-01T09:05:10;5.17;;;3.70;;
68985;SDS011;56035;37.534;-122.308;2022-08-01T09:07:37;6.05;;;3.40;;
68985;SDS011;56035;37.534;-122.308;2022-08-01T09:10:04;6.50;;;3.70;;
68985;SDS011;56035;37.534;-122.308;2022-08-01T09:12:31;4.80;;;3.23;;
68985;SDS011;56035;37.534;-122.308;2022-08-01T09:14:57;5.20;;;3.60;;
68985;SDS011;56035;37.534;-122.308;2022-08-01T09:17:23;6.70;;;3.42;;
68985;SDS011;56035;37.534;-122.308;2022-08-01T09:19:51;4.80;;;3.17;;
68985;SDS011;56035;37.534;-122.308;2022-08-01T09:22:20;5.00;;;3.40;;
68985;SDS011;56035;37.534;-122.308;2022-08-01T09:27:34;4.97;;;3.03;;
68985;SDS011;56035;37.534;-122.308;2022-08-01T09:30:10;4.10;;;2.67;;
68985;SDS011;56035;37.534;-122.308;2022-08-01T09:32:56;4.95;;;2.83;;
68985;SDS011;56035;37.534;-122.308;2022-08-01T09:35:30;4.90;;;2.53;;
68985;SDS011;56035;37.534;-122.308;2022-08-01T09:40:45;4.50;;;2.80;;
68985;SDS011;56035;37.534;-122.308;2022-08-01T09:43:14;4.83;;;2.80;;
68985;SDS011;56035;37.534;-122.308;2022-08-01T09:45:40;4.20;;;2.78;;
68985;SDS011;56035;37.534;-122.308;2022-08-01T09:48:07;6.38;;;3.13;;
68985;SDS011;56035;37.534;-122.308;2022-08-01T09:50:41;5.97;;;3.20;;
68985;SDS011;56035;37.534;-122.308;2022-08-01T09:53:09;5.45;;;3.28;;
68985;SDS011;56035;37.534;-122.308;2022-08-01T09:55:36;5.28;;;2.90;;
68985;SDS011;56035;37.534;-122.308;2022-08-01T09:58:03;5.87;;;3.17;;
68985;SDS011;56035;37.534;-122.308;2022-08-01T10:00:30;5.30;;;3.00;;
68985;SDS011;56035;37.534;-122.308;2022-08-01T10:02:58;5.00;;;3.38;;
68985;SDS011;56035;37.534;-122.308;2022-08-01T10:05:34;5.47;;;3.20;;
68985;SDS011;56035;37.534;-122.308;2022-08-01T10:08:02;6.50;;;3.37;;
68985;SDS011;56035;37.534;-122.308;2022-08-01T10:10:30;5.57;;;3.83;;
68985;SDS011;56035;37.534;-122.308;2022-08-01T10:12:57;4.43;;;3.35;;
68985;SDS011;56035;37.534;-122.308;2022-08-01T10:15:25;4.77;;;3.27;;
68985;SDS011;56035;37.534;-122.308;2022-08-01T10:17:55;4.70;;;3.10;;
68985;SDS011;56035;37.534;-122.308;2022-08-01T10:20:24;5.47;;;3.33;;
68985;SDS011;56035;37.534;-122.308;2022-08-01T10:22:53;4.40;;;2.90;;
68985;SDS011;56035;37.534;-122.308;2022-08-01T10:25:20;5.30;;;3.30;;
68985;SDS011;56035;37.534;-122.308;2022-08-01T10:27:52;6.23;;;3.23;;
68985;SDS011;56035;37.534;-122.308;2022-08-01T10:30:23;5.18;;;3.38;;
68985;SDS011;56035;37.534;-122.308;2022-08-01T10:32:49;4.72;;;3.33;;
68985;SDS011;56035;37.534;-122.308;2022-08-01T10:35:19;4.50;;;3.53;;
68985;SDS011;56035;37.534;-122.308;2022-08-01T10:37:46;4.75;;;3.45;;
68985;SDS011;56035;37.534;-122.308;2022-08-01T10:40:13;4.90;;;3.25;;
68985;SDS011;56035;37.534;-122.308;2022-08-01T10:42:43;5.80;;;3.20;;
68985;SDS011;56035;37.534;-122.308;2022-08-01T10:45:11;4.68;;;3.15;;
68985;SDS011;56035;37.534;-122.308;2022-08-01T10:50:37;4.73;;;2.97;;
68985;SDS011;56035;37.534;-122.308;2022-08-01T10:53:13;4.47;;;2.90;;
68985;SDS011;56035;37.534;-122.308;2022-08-01T10:55:52;4.68;;;2.75;;
68985;SDS011;56035;37.534;-122.308;2022-08-01T11:01:14;4.70;;;2.80;;
68985;SDS011;56035;37.534;-122.308;2022-08-01T11:03:44;4.83;;;3.00;;
68985;SDS011;56035;37.534;-122.308;2022-08-01T11:07:02;4.67;;;3.13;;
68985;SDS011;56035;37.534;-122.308;2022-08-01T11:09:26;3.93;;;2.67;;
68985;SDS011;56035;37.534;-122.308;2022-08-01T11:12:03;4.20;;;3.30;;
68985;SDS011;56035;37.534;-122.308;2022-08-01T11:17:37;6.03;;;3.17;;
68985;SDS011;56035;37.534;-122.308;2022-08-01T11:30:44;4.70;;;3.17;;
68985;SDS011;56035;37.534;-122.308;2022-08-01T11:33:14;4.43;;;2.80;;
68985;SDS011;56035;37.534;-122.308;2022-08-01T11:38:36;5.07;;;3.25;;
68985;SDS011;56035;37.534;-122.308;2022-08-01T11:41:14;5.37;;;3.50;;
68985;SDS011;56035;37.534;-122.308;2022-08-01T11:44:03;5.60;;;3.47;;
68985;SDS011;56035;37.534;-122.308;2022-08-01T11:49:23;6.30;;;3.42;;
68985;SDS011;56035;37.534;-122.308;2022-08-01T11:54:34;4.43;;;3.10;;
68985;SDS011;56035;37.534;-122.308;2022-08-01T11:57:06;3.73;;;2.63;;
68985;SDS011;56035;37.534;-122.308;2022-08-01T11:59:44;4.17;;;2.30;;
68985;SDS011;56035;37.534;-122.308;2022-08-01T12:02:23;4.83;;;2.70;;
68985;SDS011;56035;37.534;-122.308;2022-08-01T12:07:23;4.03;;;2.33;;
68985;SDS011;56035;37.534;-122.308;2022-08-01T12:09:58;3.67;;;2.43;;
68985;SDS011;56035;37.534;-122.308;2022-08-01T12:12:32;3.60;;;2.30;;
68985;SDS011;56035;37.534;-122.308;2022-08-01T12:15:02;3.58;;;2.25;;
68985;SDS011;56035;37.534;-122.308;2022-08-01T12:17:37;4.87;;;2.37;;
68985;SDS011;56035;37.534;-122.308;2022-08-01T12:20:06;4.57;;;2.30;;
68985;SDS011;56035;37.534;-122.308;2022-08-01T12:22:35;3.70;;;2.40;;
68985;SDS011;56035;37.534;-122.308;2022-08-01T12:25:11;3.60;;;2.38;;
68985;SDS011;56035;37.534;-122.308;2022-08-01T12:27:40;3.80;;;2.70;;
68985;SDS011;56035;37.534;-122.308;2022-08-01T12:30:08;4.00;;;2.40;;
68985;SDS011;56035;37.534;-122.308;2022-08-01T12:32:36;4.93;;;2.57;;
68985;SDS011;56035;37.534;-122.308;2022-08-01T12:35:11;3.83;;;2.27;;
68985;SDS011;56035;37.534;-122.308;2022-08-01T12:40:12;3.20;;;2.20;;
68985;SDS011;56035;37.534;-122.308;2022-08-01T12:42:42;4.32;;;2.50;;
68985;SDS011;56035;37.534;-122.308;2022-08-01T12:45:21;5.07;;;2.60;;
68985;SDS011;56035;37.534;-122.308;2022-08-01T12:47:52;4.72;;;2.80;;
68985;SDS011;56035;37.534;-122.308;2022-08-01T12:50:20;3.53;;;2.37;;
68985;SDS011;56035;37.534;-122.308;2022-08-01T12:52:49;3.17;;;1.80;;
68985;SDS011;56035;37.534;-122.308;2022-08-01T13:00:32;1.57;;;0.80;;
68985;SDS011;56035;37.534;-122.308;2022-08-01T13:03:03;2.13;;;1.03;;
68985;SDS011;56035;37.534;-122.308;2022-08-01T13:05:45;1.60;;;0.80;;
68985;SDS011;56035;37.534;-122.308;2022-08-01T13:08:23;1.30;;;0.80;;
68985;SDS011;56035;37.534;-122.308;2022-08-01T13:11:05;1.83;;;0.80;;
68985;SDS011;56035;37.534;-122.308;2022-08-01T13:13:39;1.27;;;0.73;;
68985;SDS011;56035;37.534;-122.308;2022-08-01T13:16:12;1.67;;;0.70;;
68985;SDS011;56035;37.534;-122.308;2022-08-01T13:18:39;1.27;;;0.80;;
68985;SDS011;56035;37.534;-122.308;2022-08-01T13:21:09;1.52;;;0.77;;
68985;SDS011;56035;37.534;-122.308;2022-08-01T13:24:04;1.30;;;0.80;;
68985;SDS011;56035;37.534;-122.308;2022-08-01T13:26:46;1.30;;;0.70;;
68985;SDS011;56035;37.534;-122.308;2022-08-01T13:29:57;1.30;;;0.80;;
68985;SDS011;56035;37.534;-122.308;2022-08-01T13:32:21;1.37;;;0.70;;
68985;SDS011;56035;37.534;-122.308;2022-08-01T13:34:48;1.60;;;0.90;;
68985;SDS011;56035;37.534;-122.308;2022-08-01T13:37:14;1.15;;;0.60;;
68985;SDS011;56035;37.534;-122.308;2022-08-01T13:39:43;1.10;;;0.60;;
68985;SDS011;56035;37.534;-122.308;2022-08-01T13:42:12;1.83;;;0.93;;
68985;SDS011;56035;37.534;-122.308;2022-08-01T13:44:40;1.07;;;0.60;;
68985;SDS011;56035;37.534;-122.308;2022-08-01T13:47:07;1.30;;;0.70;;
68985;SDS011;56035;37.534;-122.308;2022-08-01T13:49:34;1.55;;;0.70;;
68985;SDS011;56035;37.534;-122.308;2022-08-01T13:52:00;1.25;;;0.77;;
68985;SDS011;56035;37.534;-122.308;2022-08-01T13:54:27;1.67;;;0.93;;
68985;SDS011;56035;37.534;-122.308;2022-08-01T13:56:53;2.65;;;0.80;;
68985;SDS011;56035;37.534;-122.308;2022-08-01T13:59:19;1.05;;;0.63;;
68985;SDS011;56035;37.534;-122.308;2022-08-01T14:01:45;1.63;;;0.82;;
68985;SDS011;56035;37.534;-122.308;2022-08-01T14:04:12;1.95;;;0.70;;
68985;SDS011;56035;37.534;-122.308;2022-08-01T14:06:38;1.35;;;0.65;;
68985;SDS011;56035;37.534;-122.308;2022-08-01T14:09:05;1.95;;;0.88;;
68985;SDS011;56035;37.534;-122.308;2022-08-01T14:11:31;1.40;;;0.88;;
68985;SDS011;56035;37.534;-122.308;2022-08-01T14:13:57;1.42;;;0.75;;
68985;SDS011;56035;37.534;-122.308;2022-08-01T14:16:24;2.78;;;1.00;;
68985;SDS011;56035;37.534;-122.308;2022-08-01T14:18:50;1.75;;;0.88;;
68985;SDS011;56035;37.534;-122.308;2022-08-01T14:21:16;1.42;;;0.88;;
68985;SDS011;56035;37.534;-122.308;2022-08-01T14:23:43;1.67;;;1.05;;
68985;SDS011;56035;37.534;-122.308;2022-08-01T14:26:09;1.65;;;0.80;;
68985;SDS011;56035;37.534;-122.308;2022-08-01T14:28:35;1.40;;;0.75;;
68985;SDS011;56035;37.534;-122.308;2022-08-01T14:33:28;1.05;;;0.60;;
68985;SDS011;56035;37.534;-122.308;2022-08-01T14:35:56;1.40;;;0.77;;
68985;SDS011;56035;37.534;-122.308;2022-08-01T14:38:22;1.75;;;1.02;;
68985;SDS011;56035;37.534;-122.308;2022-08-01T14:40:48;2.58;;;0.90;;
68985;SDS011;56035;37.534;-122.308;2022-08-01T14:43:18;1.30;;;0.90;;
68985;SDS011;56035;37.534;-122.308;2022-08-01T14:45:44;1.85;;;1.00;;
68985;SDS011;56035;37.534;-122.308;2022-08-01T14:48:14;1.80;;;0.90;;
68985;SDS011;56035;37.534;-122.308;2022-08-01T14:50:41;1.73;;;1.02;;
68985;SDS011;56035;37.534;-122.308;2022-08-01T14:53:07;2.05;;;0.75;;
68985;SDS011;56035;37.534;-122.308;2022-08-01T14:55:33;2.10;;;1.02;;
68985;SDS011;56035;37.534;-122.308;2022-08-01T14:58:00;3.00;;;1.27;;
68985;SDS011;56035;37.534;-122.308;2022-08-01T15:00:26;2.03;;;1.10;;
68985;SDS011;56035;37.534;-122.308;2022-08-01T15:02:52;1.80;;;1.00;;
68985;SDS011;56035;37.534;-122.308;2022-08-01T15:05:18;2.10;;;1.08;;
68985;SDS011;56035;37.534;-122.308;2022-08-01T15:07:44;3.22;;;1.10;;
68985;SDS011;56035;37.534;-122.308;2022-08-01T15:10:10;1.95;;;1.13;;
68985;SDS011;56035;37.534;-122.308;2022-08-01T15:12:37;3.38;;;1.25;;
68985;SDS011;56035;37.534;-122.308;2022-08-01T15:15:03;3.38;;;1.17;;
68985;SDS011;56035;37.534;-122.308;2022-08-01T15:17:31;3.53;;;1.43;;
68985;SDS011;56035;37.534;-122.308;2022-08-01T15:20:04;1.75;;;1.10;;
68985;SDS011;56035;37.534;-122.308;2022-08-01T15:22:32;2.30;;;1.27;;
68985;SDS011;56035;37.534;-122.308;2022-08-01T15:24:59;2.85;;;1.38;;
68985;SDS011;56035;37.534;-122.308;2022-08-01T15:27:27;3.00;;;1.40;;
68985;SDS011;56035;37.534;-122.308;2022-08-01T15:29:54;3.00;;;1.60;;
68985;SDS011;56035;37.534;-122.308;2022-08-01T15:32:20;3.75;;;1.40;;
68985;SDS011;56035;37.534;-122.308;2022-08-01T15:37:13;3.22;;;1.63;;
68985;SDS011;56035;37.534;-122.308;2022-08-01T15:39:42;3.53;;;1.88;;
68985;SDS011;56035;37.534;-122.308;2022-08-01T15:42:10;3.33;;;2.10;;
68985;SDS011;56035;37.534;-122.308;2022-08-01T15:44:40;4.80;;;2.13;;
68985;SDS011;56035;37.534;-122.308;2022-08-01T15:47:06;4.45;;;1.92;;
68985;SDS011;56035;37.534;-122.308;2022-08-01T15:49:34;2.92;;;1.73;;